Time;durP1;ratioP1;P1;durP2;ratioP2;P2;SDS_P1;SDS_P2;PMS_P1;PMS_P2;Temp;Humidity;BMP_temperature;BMP_pressure;BME280_temperature;BME280_humidity;BME280_pressure;Samples;Min_cycle;Max_cycle;Signal;HPM_P1;HPM_P2
2021/12/12 00:02:11;;;;;;;;;13.33;7.00;;;;;;;;5184278;27;22293;-81
2021/12/12 00:04:39;;;;;;;;;10.67;10.00;;;;;;;;5185375;27;10375;-80
2021/12/12 00:07:07;;;;;;;;;10.67;5.67;;;;;;;;5183395;27;21702;-81
2021/12/12 00:09:35;;;;;;;;;1.33;1.33;;;;;;;;5184590;27;16564;-81
2021/12/12 00:12:06;;;;;;;;;4.67;4.67;;;;;;;;5184574;27;21687;-81
2021/12/12 00:14:33;;;;;;;;;10.00;10.00;;;;;;;;5184661;27;11368;-83
2021/12/12 00:16:58;;;;;;;;;8.33;7.00;;;;;;;;5184259;27;22334;-82
2021/12/12 00:19:25;;;;;;;;;5.00;5.00;;;;;;;;5184220;27;22330;-81
2021/12/12 00:21:54;;;;;;;;;5.00;4.00;;;;;;;;5184585;27;10723;-81
2021/12/12 00:24:20;;;;;;;;;7.00;5.00;;;;;;;;5185103;27;8746;-82
2021/12/12 00:26:46;;;;;;;;;8.67;7.33;;;;;;;;5185479;27;9136;-82
2021/12/12 00:29:13;;;;;;;;;11.00;8.67;;;;;;;;5184968;27;11421;-82
2021/12/12 00:31:38;;;;;;;;;9.33;9.33;;;;;;;;5184172;27;22559;-82
2021/12/12 00:34:04;;;;;;;;;12.33;7.00;;;;;;;;5183385;27;21443;-81
2021/12/12 00:36:32;;;;;;;;;4.67;4.00;;;;;;;;5184285;27;21753;-82
2021/12/12 00:38:58;;;;;;;;;9.33;9.33;;;;;;;;5183619;27;21785;-82
2021/12/12 00:41:29;;;;;;;;;10.67;4.67;;;;;;;;5183831;27;12609;-82
2021/12/12 00:43:55;;;;;;;;;13.00;8.00;;;;;;;;5184278;27;21646;-82
2021/12/12 00:46:22;;;;;;;;;7.33;7.00;;;;;;;;5166226;27;12674;-82
2021/12/12 00:48:48;;;;;;;;;11.00;7.00;;;;;;;;5184015;27;21414;-83
2021/12/12 00:51:15;;;;;;;;;7.67;5.00;;;;;;;;5183305;27;16568;-81
2021/12/12 00:53:41;;;;;;;;;13.00;10.00;;;;;;;;5184827;27;22837;-83
2021/12/12 00:56:07;;;;;;;;;11.67;11.00;;;;;;;;5184299;27;22593;-83
2021/12/12 00:58:32;;;;;;;;;4.00;4.00;;;;;;;;5184644;27;10315;-82
2021/12/12 01:01:04;;;;;;;;;7.00;7.00;;;;;;;;5184092;27;22738;-81
2021/12/12 01:03:31;;;;;;;;;13.67;13.00;;;;;;;;5184353;27;8815;-82
2021/12/12 01:05:57;;;;;;;;;8.00;7.00;;;;;;;;5183651;27;22416;-82
2021/12/12 01:08:23;;;;;;;;;8.67;7.00;;;;;;;;5183706;27;23721;-82
2021/12/12 01:10:55;;;;;;;;;10.33;8.00;;;;;;;;5183781;27;8889;-82
2021/12/12 01:13:21;;;;;;;;;13.67;10.00;;;;;;;;5183951;27;21424;-81
2021/12/12 01:15:50;;;;;;;;;7.33;7.33;;;;;;;;5184391;27;21718;-82
2021/12/12 01:18:17;;;;;;;;;8.67;8.00;;;;;;;;5183287;27;23638;-82
2021/12/12 01:20:53;;;;;;;;;12.33;7.67;;;;;;;;5165133;27;13429;-83
2021/12/12 01:23:23;;;;;;;;;14.33;10.00;;;;;;;;5184095;27;21934;-82
2021/12/12 01:25:49;;;;;;;;;11.00;10.00;;;;;;;;5183908;27;22943;-82
2021/12/12 01:28:17;;;;;;;;;13.00;10.00;;;;;;;;5184644;27;8888;-83
2021/12/12 01:30:42;;;;;;;;;8.33;6.33;;;;;;;;5183371;27;8762;-82
2021/12/12 01:33:09;;;;;;;;;8.67;8.67;;;;;;;;5182816;27;22199;-82
2021/12/12 01:35:36;;;;;;;;;8.00;7.00;;;;;;;;5185277;27;10756;-81
2021/12/12 01:40:50;;;;;;;;;7.00;7.00;;;;;;;;5183246;27;21357;-81
2021/12/12 01:43:20;;;;;;;;;10.33;7.00;;;;;;;;5182985;27;21693;-81
2021/12/12 01:45:48;;;;;;;;;8.33;8.33;;;;;;;;5184142;27;16613;-82
2021/12/12 01:48:16;;;;;;;;;10.67;7.00;;;;;;;;5183193;27;21372;-81
2021/12/12 01:51:02;;;;;;;;;11.00;7.00;;;;;;;;5183295;27;21539;-81
2021/12/12 01:53:29;;;;;;;;;11.33;9.33;;;;;;;;5181845;27;9121;-80
2021/12/12 01:56:11;;;;;;;;;8.00;7.00;;;;;;;;5183446;27;10508;-81
2021/12/12 01:58:39;;;;;;;;;9.00;9.00;;;;;;;;5182877;27;22552;-81
2021/12/12 02:01:07;;;;;;;;;8.33;8.33;;;;;;;;5183450;27;9023;-82
2021/12/12 02:03:35;;;;;;;;;10.00;7.00;;;;;;;;5182415;27;11553;-83
2021/12/12 02:06:01;;;;;;;;;10.00;9.00;;;;;;;;5182132;27;21411;-82
2021/12/12 02:08:28;;;;;;;;;11.33;9.00;;;;;;;;5182517;27;8801;-82
2021/12/12 02:10:56;;;;;;;;;9.67;7.67;;;;;;;;5182107;27;8951;-82
2021/12/12 02:13:23;;;;;;;;;11.33;9.67;;;;;;;;5163158;27;21868;-82
2021/12/12 02:15:49;;;;;;;;;6.33;6.33;;;;;;;;5182059;27;21376;-80
2021/12/12 02:18:17;;;;;;;;;8.67;7.67;;;;;;;;5183671;27;22568;-82
2021/12/12 02:20:54;;;;;;;;;15.67;8.33;;;;;;;;5182840;27;11345;-84
2021/12/12 02:36:47;;;;;;;;;9.00;9.00;;;;;;;;5182331;27;21570;-84
2021/12/12 02:39:16;;;;;;;;;14.33;9.67;;;;;;;;5182726;27;8870;-83
2021/12/12 02:41:53;;;;;;;;;9.00;6.33;;;;;;;;5182025;27;21461;-82
2021/12/12 02:44:21;;;;;;;;;10.00;7.00;;;;;;;;5181859;27;21399;-83
2021/12/12 02:46:48;;;;;;;;;7.00;7.00;;;;;;;;5182226;27;21978;-83
2021/12/12 02:49:39;;;;;;;;;8.33;7.67;;;;;;;;5182452;27;16269;-83
2021/12/12 02:52:09;;;;;;;;;9.33;9.33;;;;;;;;5183197;27;11456;-83
2021/12/12 02:54:35;;;;;;;;;12.67;6.67;;;;;;;;5185583;27;11461;-84
2021/12/12 02:57:00;;;;;;;;;10.00;10.00;;;;;;;;5186109;27;22489;-83
2021/12/12 02:59:26;;;;;;;;;10.00;7.67;;;;;;;;5186204;27;21362;-85
2021/12/12 03:01:57;;;;;;;;;10.00;7.00;;;;;;;;5186495;27;16533;-85
2021/12/12 03:04:23;;;;;;;;;17.67;9.00;;;;;;;;5186199;27;9756;-84
2021/12/12 03:06:48;;;;;;;;;6.00;4.00;;;;;;;;5185968;27;10398;-84
2021/12/12 03:09:19;;;;;;;;;12.00;9.67;;;;;;;;5186044;27;21483;-85
2021/12/12 03:11:45;;;;;;;;;9.33;9.33;;;;;;;;5185629;27;21421;-83
2021/12/12 03:14:10;;;;;;;;;9.00;9.00;;;;;;;;5185565;27;21627;-84
2021/12/12 03:16:36;;;;;;;;;13.00;10.00;;;;;;;;5186112;27;8792;-84
2021/12/12 03:19:03;;;;;;;;;8.33;8.33;;;;;;;;5185255;27;23459;-84
2021/12/12 03:21:32;;;;;;;;;9.67;9.67;;;;;;;;5185765;27;22310;-84
2021/12/12 03:24:06;;;;;;;;;12.00;9.00;;;;;;;;5185547;27;11514;-84
2021/12/12 03:26:31;;;;;;;;;9.00;9.00;;;;;;;;5185473;27;21733;-83
2021/12/12 03:28:57;;;;;;;;;9.67;7.67;;;;;;;;5185608;27;16339;-84
2021/12/12 03:31:30;;;;;;;;;13.00;12.33;;;;;;;;5185496;27;10248;-83
2021/12/12 03:33:55;;;;;;;;;15.00;10.00;;;;;;;;5185478;27;23572;-84
2021/12/12 03:36:21;;;;;;;;;21.75;20.00;;;;;;;;5186004;27;11377;-85
2021/12/12 03:38:49;;;;;;;;;19.50;16.50;;;;;;;;5186151;27;12275;-84
2021/12/12 03:41:16;;;;;;;;;15.67;13.00;;;;;;;;5185784;27;13326;-84
2021/12/12 03:43:45;;;;;;;;;15.25;13.00;;;;;;;;5185748;27;11435;-84
2021/12/12 03:46:11;;;;;;;;;18.00;16.00;;;;;;;;5166595;27;9558;-82
2021/12/12 03:48:38;;;;;;;;;13.00;13.00;;;;;;;;5185725;27;10520;-84
2021/12/12 03:51:05;;;;;;;;;6.00;0.00;;;;;;;;5186590;27;10024;-85
2021/12/12 03:53:31;;;;;;;;;12.33;9.67;;;;;;;;5185902;27;22527;-85
2021/12/12 03:55:57;;;;;;;;;12.00;4.00;;;;;;;;5185007;27;21868;-86
2021/12/12 03:58:23;;;;;;;;;12.00;11.33;;;;;;;;5185782;27;10572;-85
2021/12/12 04:01:07;;;;;;;;;14.33;9.00;;;;;;;;5186831;27;17625;-84
2021/12/12 04:03:32;;;;;;;;;9.33;7.67;;;;;;;;5201953;27;21469;-84
2021/12/12 04:06:00;;;;;;;;;13.00;9.67;;;;;;;;5190690;27;21428;-83
2021/12/12 04:08:26;;;;;;;;;12.67;9.33;;;;;;;;5185300;27;21730;-82
2021/12/12 04:10:52;;;;;;;;;12.00;10.00;;;;;;;;5184794;27;10593;-83
2021/12/12 04:13:17;;;;;;;;;12.33;10.00;;;;;;;;5184402;27;21530;-85
2021/12/12 04:15:42;;;;;;;;;12.50;12.25;;;;;;;;5185902;27;8774;-83
2021/12/12 04:18:08;;;;;;;;;9.50;9.50;;;;;;;;5187471;27;10533;-84
2021/12/12 04:20:35;;;;;;;;;16.00;13.00;;;;;;;;5186530;27;22444;-83
2021/12/12 04:23:00;;;;;;;;;22.50;18.50;;;;;;;;5185621;27;22255;-82
2021/12/12 04:25:26;;;;;;;;;23.50;13.50;;;;;;;;5185891;27;13224;-85
2021/12/12 04:27:52;;;;;;;;;21.25;19.00;;;;;;;;5185057;27;8975;-86
2021/12/12 04:30:18;;;;;;;;;18.50;16.75;;;;;;;;5186195;27;12524;-84
2021/12/12 04:32:44;;;;;;;;;18.75;14.50;;;;;;;;5185883;27;13207;-85
2021/12/12 04:35:15;;;;;;;;;16.25;15.25;;;;;;;;5185939;27;10449;-87
2021/12/12 04:37:41;;;;;;;;;12.25;12.00;;;;;;;;5185659;27;12857;-87
2021/12/12 04:40:08;;;;;;;;;12.00;9.00;;;;;;;;5186741;27;11640;-85
2021/12/12 04:42:35;;;;;;;;;12.00;9.75;;;;;;;;5185061;27;22073;-83
2021/12/12 04:45:03;;;;;;;;;15.75;12.25;;;;;;;;5185454;27;8762;-85
2021/12/12 04:50:30;;;;;;;;;12.00;10.00;;;;;;;;5185233;27;11404;-83
2021/12/12 04:53:04;;;;;;;;;12.25;10.00;;;;;;;;5182135;27;8774;-83
2021/12/12 04:55:33;;;;;;;;;12.25;10.50;;;;;;;;5182841;27;8916;-84
2021/12/12 04:57:58;;;;;;;;;17.50;15.00;;;;;;;;5187735;27;8778;-84
2021/12/12 05:00:27;;;;;;;;;12.50;11.00;;;;;;;;5188464;27;12673;-86
2021/12/12 05:03:19;;;;;;;;;17.00;10.00;;;;;;;;5183502;27;8766;-85
2021/12/12 05:05:53;;;;;;;;;11.50;8.00;;;;;;;;5180268;27;10625;-88
2021/12/12 05:08:25;;;;;;;;;9.00;6.00;;;;;;;;5185515;27;21896;-84
2021/12/12 05:10:50;;;;;;;;;6.00;6.00;;;;;;;;5183934;27;22697;-83
2021/12/12 05:13:19;;;;;;;;;11.50;11.00;;;;;;;;5184223;27;8818;-86
2021/12/12 05:15:49;;;;;;;;;9.25;7.00;;;;;;;;5183404;27;22308;-84
2021/12/12 05:18:15;;;;;;;;;9.25;7.50;;;;;;;;5180583;27;22375;-85
2021/12/12 05:20:45;;;;;;;;;7.00;7.00;;;;;;;;5184046;27;8790;-85
2021/12/12 05:23:12;;;;;;;;;9.75;9.00;;;;;;;;5182280;27;11436;-86
2021/12/12 05:25:47;;;;;;;;;13.00;10.00;;;;;;;;5184647;27;10347;-85
2021/12/12 05:28:14;;;;;;;;;11.00;9.00;;;;;;;;5178860;27;22390;-86
2021/12/12 05:30:39;;;;;;;;;12.50;10.00;;;;;;;;5183307;27;22039;-86
2021/12/12 05:33:05;;;;;;;;;10.50;10.00;;;;;;;;5183940;27;21506;-85
2021/12/12 05:35:33;;;;;;;;;12.25;12.00;;;;;;;;5185972;27;8694;-86
2021/12/12 05:37:59;;;;;;;;;11.00;9.50;;;;;;;;5187315;27;10411;-86
2021/12/12 05:40:27;;;;;;;;;9.50;7.00;;;;;;;;5186526;27;21619;-85
2021/12/12 05:42:54;;;;;;;;;9.50;7.00;;;;;;;;5184230;27;21570;-91
2021/12/12 05:45:19;;;;;;;;;9.00;9.00;;;;;;;;5181563;27;8762;-91
2021/12/12 05:47:46;;;;;;;;;10.50;7.00;;;;;;;;5184206;27;9442;-90
2021/12/12 05:50:12;;;;;;;;;7.00;7.00;;;;;;;;5183181;27;21635;-88
2021/12/12 05:52:38;;;;;;;;;9.00;7.00;;;;;;;;5183492;27;16494;-85
2021/12/12 05:55:05;;;;;;;;;12.50;12.00;;;;;;;;5183507;27;8795;-84
2021/12/12 05:57:32;;;;;;;;;9.25;8.00;;;;;;;;5182347;27;22315;-84
2021/12/12 05:59:58;;;;;;;;;7.50;6.75;;;;;;;;5182917;27;24537;-84
2021/12/12 06:02:24;;;;;;;;;12.25;9.50;;;;;;;;5183977;27;11309;-84
2021/12/12 06:04:50;;;;;;;;;6.75;6.00;;;;;;;;5183252;27;21465;-84
2021/12/12 06:07:17;;;;;;;;;6.25;4.50;;;;;;;;5182779;27;21335;-85
2021/12/12 06:09:43;;;;;;;;;10.00;9.00;;;;;;;;5183940;27;10518;-84
2021/12/12 06:12:09;;;;;;;;;9.50;9.00;;;;;;;;5182447;27;21511;-82
2021/12/12 06:14:35;;;;;;;;;9.00;9.00;;;;;;;;5189023;27;16195;-83
2021/12/12 06:17:01;;;;;;;;;10.00;6.75;;;;;;;;5187754;27;8821;-84
2021/12/12 06:19:30;;;;;;;;;7.50;7.50;;;;;;;;5162642;27;23842;-83
2021/12/12 06:21:56;;;;;;;;;9.75;8.50;;;;;;;;5182200;27;21532;-84
2021/12/12 06:24:23;;;;;;;;;9.00;6.50;;;;;;;;5182890;27;10359;-82
2021/12/12 06:26:48;;;;;;;;;11.25;5.00;;;;;;;;5182910;27;9503;-83
2021/12/12 06:29:14;;;;;;;;;8.75;6.50;;;;;;;;5185518;27;21487;-82
2021/12/12 06:31:42;;;;;;;;;8.50;6.75;;;;;;;;5183488;27;21469;-86
2021/12/12 06:34:07;;;;;;;;;5.50;5.50;;;;;;;;5188150;27;8909;-84
2021/12/12 06:36:35;;;;;;;;;6.00;6.00;;;;;;;;5187139;27;11300;-87
2021/12/12 06:39:02;;;;;;;;;7.50;6.50;;;;;;;;5185847;27;11393;-85
2021/12/12 06:41:28;;;;;;;;;5.25;3.25;;;;;;;;5186233;27;11512;-84
2021/12/12 06:43:56;;;;;;;;;8.00;6.00;;;;;;;;5186815;27;11292;-83
2021/12/12 06:46:21;;;;;;;;;7.00;7.00;;;;;;;;5185971;27;11535;-82
2021/12/12 06:48:47;;;;;;;;;10.25;10.25;;;;;;;;5186627;27;8781;-83
2021/12/12 06:51:13;;;;;;;;;11.50;7.50;;;;;;;;5185845;27;23410;-82
2021/12/12 06:53:41;;;;;;;;;9.75;9.75;;;;;;;;5186168;27;21360;-79
2021/12/12 06:56:08;;;;;;;;;10.50;9.25;;;;;;;;5185360;27;21630;-81
2021/12/12 06:58:34;;;;;;;;;14.75;10.00;;;;;;;;5185390;27;21711;-82
2021/12/12 07:01:03;;;;;;;;;7.50;7.50;;;;;;;;5185227;27;22812;-83
2021/12/12 07:03:29;;;;;;;;;10.75;10.00;;;;;;;;5182939;27;23696;-82
2021/12/12 07:05:54;;;;;;;;;8.00;7.00;;;;;;;;5176022;27;22425;-78
2021/12/12 07:08:21;;;;;;;;;8.00;8.00;;;;;;;;5164567;27;22443;-82
2021/12/12 07:10:46;;;;;;;;;12.67;12.00;;;;;;;;5164098;27;8795;-81
2021/12/12 07:13:11;;;;;;;;;15.33;12.33;;;;;;;;5163804;27;22219;-82
2021/12/12 07:15:39;;;;;;;;;12.67;12.00;;;;;;;;5164374;27;11780;-83
2021/12/12 07:18:07;;;;;;;;;16.67;14.67;;;;;;;;5164651;27;11438;-81
2021/12/12 07:20:32;;;;;;;;;14.33;13.00;;;;;;;;5170278;27;11448;-74
2021/12/12 07:22:57;;;;;;;;;20.33;15.00;;;;;;;;5184470;27;11454;-77
2021/12/12 07:25:23;;;;;;;;;23.00;20.67;;;;;;;;5185320;27;10336;-77
2021/12/12 07:27:53;;;;;;;;;2.00;2.00;;;;;;;;5185471;27;12418;-75
2021/12/12 07:30:19;;;;;;;;;12.33;12.33;;;;;;;;5182014;27;23686;-76
2021/12/12 07:32:45;;;;;;;;;15.33;14.33;;;;;;;;5183750;27;22291;-77
2021/12/12 07:35:11;;;;;;;;;15.67;15.67;;;;;;;;5184817;27;8820;-78
2021/12/12 07:37:37;;;;;;;;;16.33;16.33;;;;;;;;5185120;27;10411;-76
2021/12/12 07:40:04;;;;;;;;;11.33;11.33;;;;;;;;5181311;27;12550;-79
2021/12/12 07:42:30;;;;;;;;;14.67;13.00;;;;;;;;5184333;27;8773;-76
2021/12/12 07:44:55;;;;;;;;;14.00;14.00;;;;;;;;5184431;27;11519;-74
2021/12/12 07:47:21;;;;;;;;;13.00;11.33;;;;;;;;5184455;27;9806;-75
2021/12/12 07:49:48;;;;;;;;;14.00;11.33;;;;;;;;5185548;27;11348;-78
2021/12/12 07:52:15;;;;;;;;;4.67;3.33;;;;;;;;5185160;27;8774;-79
2021/12/12 07:54:40;;;;;;;;;11.33;10.00;;;;;;;;5184787;27;22184;-76
2021/12/12 07:57:07;;;;;;;;;15.67;13.33;;;;;;;;5184398;27;23474;-76
2021/12/12 07:59:33;;;;;;;;;12.00;12.00;;;;;;;;5183886;27;11707;-74
2021/12/12 08:02:00;;;;;;;;;15.00;15.00;;;;;;;;5184396;27;11719;-74
2021/12/12 08:04:28;;;;;;;;;16.00;15.00;;;;;;;;5183592;27;8782;-77
2021/12/12 08:06:53;;;;;;;;;12.00;12.00;;;;;;;;5184557;27;8842;-78
2021/12/12 08:09:20;;;;;;;;;13.00;10.33;;;;;;;;5185575;27;8774;-76
2021/12/12 08:11:46;;;;;;;;;10.67;9.33;;;;;;;;5183490;27;11494;-74
2021/12/12 08:14:13;;;;;;;;;13.00;13.00;;;;;;;;5184465;27;21374;-77
2021/12/12 08:16:39;;;;;;;;;14.33;13.67;;;;;;;;5184459;27;21493;-74
2021/12/12 08:19:04;;;;;;;;;15.33;13.00;;;;;;;;5184804;27;11608;-77
2021/12/12 08:21:33;;;;;;;;;15.33;13.00;;;;;;;;5185007;27;11412;-75
2021/12/12 08:23:59;;;;;;;;;11.00;9.00;;;;;;;;5168784;27;8815;-78
2021/12/12 08:26:25;;;;;;;;;15.00;13.00;;;;;;;;5163637;27;21469;-78
2021/12/12 08:28:50;;;;;;;;;16.00;13.00;;;;;;;;5162714;27;22556;-73
2021/12/12 08:31:16;;;;;;;;;11.67;11.33;;;;;;;;5162904;27;8803;-74
2021/12/12 08:33:42;;;;;;;;;12.33;11.67;;;;;;;;5169141;27;11827;-73
2021/12/12 08:36:08;;;;;;;;;15.67;14.00;;;;;;;;5166431;27;11817;-74
2021/12/12 08:38:33;;;;;;;;;16.00;14.33;;;;;;;;5183740;27;11368;-74
2021/12/12 08:41:00;;;;;;;;;17.00;14.67;;;;;;;;5182752;27;11556;-72
2021/12/12 08:43:26;;;;;;;;;15.67;13.67;;;;;;;;5180287;27;11538;-73
2021/12/12 08:45:53;;;;;;;;;16.33;15.33;;;;;;;;5184083;27;10467;-73
2021/12/12 08:48:20;;;;;;;;;13.00;13.00;;;;;;;;5183342;27;11440;-74
2021/12/12 08:50:47;;;;;;;;;16.00;16.00;;;;;;;;5183125;27;11643;-73
2021/12/12 08:53:13;;;;;;;;;12.67;12.67;;;;;;;;5183229;27;9772;-74
2021/12/12 08:55:42;;;;;;;;;13.67;13.67;;;;;;;;5183187;27;11530;-77
2021/12/12 08:58:15;;;;;;;;;15.33;12.67;;;;;;;;5183240;27;8788;-75
2021/12/12 09:00:45;;;;;;;;;15.33;14.67;;;;;;;;5184262;27;10495;-76
2021/12/12 09:03:14;;;;;;;;;14.67;13.00;;;;;;;;5183951;27;9529;-78
2021/12/12 09:05:41;;;;;;;;;15.33;14.33;;;;;;;;5182267;27;11625;-74
2021/12/12 09:08:09;;;;;;;;;16.33;14.00;;;;;;;;5182483;27;11479;-73
2021/12/12 09:10:38;;;;;;;;;19.67;14.00;;;;;;;;5159969;27;13020;-73
2021/12/12 09:13:06;;;;;;;;;14.00;14.00;;;;;;;;5182018;27;10646;-73
2021/12/12 09:15:55;;;;;;;;;15.33;13.67;;;;;;;;5182684;27;9791;-76
2021/12/12 09:18:43;;;;;;;;;16.67;16.67;;;;;;;;5168507;27;11714;-72
2021/12/12 09:21:15;;;;;;;;;14.33;14.33;;;;;;;;5180388;27;10926;-78
2021/12/12 09:23:50;;;;;;;;;18.33;14.00;;;;;;;;5180236;27;12876;-79
2021/12/12 09:26:21;;;;;;;;;21.67;17.33;;;;;;;;5183085;27;11519;-75
2021/12/12 09:28:53;;;;;;;;;20.00;16.00;;;;;;;;5180991;27;13271;-78
2021/12/12 09:31:24;;;;;;;;;13.67;13.67;;;;;;;;5182332;27;11468;-77
2021/12/12 09:33:52;;;;;;;;;16.33;15.33;;;;;;;;5183305;27;13426;-75
2021/12/12 09:36:31;;;;;;;;;21.67;18.33;;;;;;;;5182538;27;11465;-76
2021/12/12 09:38:57;;;;;;;;;18.33;17.00;;;;;;;;5182587;27;13475;-75
2021/12/12 09:41:45;;;;;;;;;24.67;17.00;;;;;;;;5162024;27;13714;-75
2021/12/12 09:44:19;;;;;;;;;17.00;16.00;;;;;;;;5180871;27;10238;-75
2021/12/12 09:52:55;;;;;;;;;17.67;17.00;;;;;;;;5180579;27;8774;-75
2021/12/12 09:55:47;;;;;;;;;16.67;16.00;;;;;;;;5182414;27;12497;-75
2021/12/12 09:58:22;;;;;;;;;20.33;15.33;;;;;;;;5176051;27;8790;-75
2021/12/12 10:00:58;;;;;;;;;17.67;16.00;;;;;;;;5181506;27;14514;-75
2021/12/12 10:03:28;;;;;;;;;26.00;18.00;;;;;;;;5175979;27;13261;-81
2021/12/12 10:06:07;;;;;;;;;17.00;17.00;;;;;;;;5180146;27;12296;-80
2021/12/12 10:08:50;;;;;;;;;16.33;14.33;;;;;;;;5177320;27;10778;-80
2021/12/12 10:11:31;;;;;;;;;18.00;17.00;;;;;;;;5182119;27;11763;-79
2021/12/12 10:14:05;;;;;;;;;16.00;14.33;;;;;;;;5179327;27;83395;-79
2021/12/12 10:16:40;;;;;;;;;13.33;13.33;;;;;;;;5182282;27;12650;-76
2021/12/12 10:19:23;;;;;;;;;16.33;14.00;;;;;;;;5164026;27;10866;-79
2021/12/12 10:22:07;;;;;;;;;15.00;13.67;;;;;;;;5182262;27;13140;-79
2021/12/12 10:24:35;;;;;;;;;20.67;18.67;;;;;;;;5182555;27;11655;-79
2021/12/12 10:27:00;;;;;;;;;20.33;18.33;;;;;;;;5179817;27;12315;-81
2021/12/12 10:29:47;;;;;;;;;19.00;18.00;;;;;;;;5182469;27;9545;-79
2021/12/12 10:32:18;;;;;;;;;22.00;21.00;;;;;;;;5182359;27;13674;-80
2021/12/12 10:34:48;;;;;;;;;25.67;21.33;;;;;;;;5182126;27;10426;-77
2021/12/12 10:37:23;;;;;;;;;22.33;21.67;;;;;;;;5181528;27;11675;-70
2021/12/12 10:39:57;;;;;;;;;19.00;16.00;;;;;;;;5180760;27;11453;-72
2021/12/12 10:42:33;;;;;;;;;21.00;15.33;;;;;;;;5160298;27;13311;-72
2021/12/12 10:45:00;;;;;;;;;20.67;13.00;;;;;;;;5160988;27;13303;-74
2021/12/12 10:47:36;;;;;;;;;13.00;13.00;;;;;;;;5168441;27;11630;-72
2021/12/12 10:50:11;;;;;;;;;21.67;16.00;;;;;;;;5177428;27;10284;-72
2021/12/12 10:52:38;;;;;;;;;19.67;16.67;;;;;;;;5181435;27;12274;-73
2021/12/12 10:55:07;;;;;;;;;14.67;13.00;;;;;;;;5181518;27;13521;-77
2021/12/12 10:57:33;;;;;;;;;13.00;12.33;;;;;;;;5162128;27;12405;-74
2021/12/12 11:00:20;;;;;;;;;16.00;16.00;;;;;;;;5162786;27;12351;-72
2021/12/12 11:03:02;;;;;;;;;18.33;18.33;;;;;;;;5181185;27;11701;-74
2021/12/12 11:05:30;;;;;;;;;20.50;17.75;;;;;;;;5180803;27;11492;-74
2021/12/12 11:08:01;;;;;;;;;17.75;17.00;;;;;;;;5181455;27;13441;-72
2021/12/12 11:10:29;;;;;;;;;19.25;17.50;;;;;;;;5180945;27;14716;-77
2021/12/12 11:13:00;;;;;;;;;19.50;17.00;;;;;;;;5181594;27;11536;-73
2021/12/12 11:15:25;;;;;;;;;17.00;14.00;;;;;;;;5183624;27;11433;-74
2021/12/12 11:17:58;;;;;;;;;15.75;14.50;;;;;;;;5185250;27;12104;-72
2021/12/12 11:20:28;;;;;;;;;17.00;16.00;;;;;;;;5185542;27;11578;-82
2021/12/12 11:22:59;;;;;;;;;26.50;19.50;;;;;;;;5185397;27;11439;-84
2021/12/12 11:25:27;;;;;;;;;18.00;14.25;;;;;;;;5184793;27;14887;-77
2021/12/12 11:28:04;;;;;;;;;17.75;15.50;;;;;;;;5184623;27;13490;-79
2021/12/12 11:30:33;;;;;;;;;19.50;18.50;;;;;;;;5179214;27;11650;-78
2021/12/12 11:32:59;;;;;;;;;16.50;16.25;;;;;;;;5166726;27;11836;-76
2021/12/12 11:35:26;;;;;;;;;17.75;15.25;;;;;;;;5168116;27;11452;-76
2021/12/12 11:37:56;;;;;;;;;19.50;18.50;;;;;;;;5163867;27;11614;-77
2021/12/12 11:40:39;;;;;;;;;23.00;22.00;;;;;;;;5180019;27;11497;-79
2021/12/12 11:43:27;;;;;;;;;23.25;22.00;;;;;;;;5166032;27;13397;-76
2021/12/12 11:45:54;;;;;;;;;21.75;21.00;;;;;;;;5184843;27;11945;-76
2021/12/12 11:48:40;;;;;;;;;23.50;22.50;;;;;;;;5168146;27;12212;-76
2021/12/12 11:51:12;;;;;;;;;21.75;19.75;;;;;;;;5164037;27;12635;-75
2021/12/12 11:53:44;;;;;;;;;24.75;21.75;;;;;;;;5163485;27;12538;-76
2021/12/12 11:56:12;;;;;;;;;17.25;17.25;;;;;;;;5154031;27;11497;-73
2021/12/12 11:58:46;;;;;;;;;15.00;14.75;;;;;;;;5163342;27;12260;-73
2021/12/12 12:01:17;;;;;;;;;20.75;18.25;;;;;;;;5163539;27;11433;-73
2021/12/12 12:04:01;;;;;;;;;17.25;16.50;;;;;;;;5162838;27;12767;-75
2021/12/12 12:06:29;;;;;;;;;16.50;14.25;;;;;;;;5164073;27;13288;-74
2021/12/12 12:09:03;;;;;;;;;16.00;16.00;;;;;;;;5163323;27;11538;-74
2021/12/12 12:11:47;;;;;;;;;14.50;13.50;;;;;;;;5176213;27;11520;-75
2021/12/12 12:14:31;;;;;;;;;15.00;14.50;;;;;;;;5183959;27;11466;-76
2021/12/12 12:17:05;;;;;;;;;17.00;16.25;;;;;;;;5184376;27;11427;-75
2021/12/12 12:19:49;;;;;;;;;16.50;14.75;;;;;;;;5184478;27;11431;-76
2021/12/12 12:22:34;;;;;;;;;11.50;11.25;;;;;;;;5184071;27;11466;-74
2021/12/12 12:25:15;;;;;;;;;13.50;13.50;;;;;;;;5180821;27;11522;-74
2021/12/12 12:27:43;;;;;;;;;12.50;10.75;;;;;;;;5181075;27;11710;-74
2021/12/12 12:30:11;;;;;;;;;14.25;13.75;;;;;;;;5163994;27;13979;-80
2021/12/12 12:33:09;;;;;;;;;12.25;10.50;;;;;;;;5184071;27;11422;-75
2021/12/12 12:35:53;;;;;;;;;11.50;9.00;;;;;;;;5121661;27;11511;-86
2021/12/12 12:38:24;;;;;;;;;14.00;12.25;;;;;;;;5178372;27;22801;-82
2021/12/12 12:41:08;;;;;;;;;15.50;14.00;;;;;;;;5183027;27;21684;-80
2021/12/12 12:43:51;;;;;;;;;14.00;12.25;;;;;;;;5183885;27;11479;-81
2021/12/12 12:46:35;;;;;;;;;17.50;16.00;;;;;;;;5183919;27;11504;-81
2021/12/12 12:49:06;;;;;;;;;15.25;14.25;;;;;;;;5183714;27;12755;-86
2021/12/12 12:51:50;;;;;;;;;11.75;11.50;;;;;;;;5184116;27;11671;-85
2021/12/12 12:54:21;;;;;;;;;14.00;12.50;;;;;;;;5183707;27;11958;-85
2021/12/12 12:57:16;;;;;;;;;13.00;13.00;;;;;;;;5184154;27;11432;-85
2021/12/12 12:59:41;;;;;;;;;13.50;13.00;;;;;;;;5183111;27;12608;-85
2021/12/12 13:02:12;;;;;;;;;14.25;10.25;;;;;;;;5183129;27;11456;-84
2021/12/12 13:04:56;;;;;;;;;12.75;10.75;;;;;;;;5182204;27;11436;-82
2021/12/12 13:07:27;;;;;;;;;14.25;12.75;;;;;;;;5181406;27;11440;-82
2021/12/12 13:09:52;;;;;;;;;10.00;10.00;;;;;;;;5179662;27;11481;-80
2021/12/12 13:12:36;;;;;;;;;9.50;8.25;;;;;;;;5180897;27;13042;-81
2021/12/12 13:15:20;;;;;;;;;12.75;10.75;;;;;;;;5181105;27;22274;-81
2021/12/12 13:18:17;;;;;;;;;10.00;10.00;;;;;;;;5183080;27;22451;-82
2021/12/12 13:21:02;;;;;;;;;14.25;10.00;;;;;;;;5159064;27;11627;-80
2021/12/12 13:23:34;;;;;;;;;10.00;9.25;;;;;;;;5179558;27;11465;-82
2021/12/12 13:26:04;;;;;;;;;8.25;8.25;;;;;;;;5183034;27;22927;-88
2021/12/12 13:28:36;;;;;;;;;8.50;8.50;;;;;;;;5182878;27;22539;-84
2021/12/12 13:31:19;;;;;;;;;7.75;7.75;;;;;;;;5183591;27;11398;-89
2021/12/12 13:33:44;;;;;;;;;12.00;10.50;;;;;;;;5184766;27;11376;-88
2021/12/12 13:36:25;;;;;;;;;10.25;9.75;;;;;;;;5182841;27;23375;-85
2021/12/12 13:38:53;;;;;;;;;9.25;9.00;;;;;;;;5181443;27;21767;-87
2021/12/12 13:41:34;;;;;;;;;9.25;7.75;;;;;;;;5182492;27;22708;-79
2021/12/12 13:43:59;;;;;;;;;6.50;5.25;;;;;;;;5182434;27;11470;-83
2021/12/12 13:46:24;;;;;;;;;8.00;5.75;;;;;;;;5179901;27;11577;-77
2021/12/12 13:49:01;;;;;;;;;6.50;6.50;;;;;;;;5182558;27;10712;-78
2021/12/12 13:51:47;;;;;;;;;6.00;5.75;;;;;;;;5182830;27;11385;-75
2021/12/12 13:54:31;;;;;;;;;7.50;5.25;;;;;;;;5162567;27;11388;-78
2021/12/12 13:57:02;;;;;;;;;4.75;4.75;;;;;;;;5182822;27;11406;-80
2021/12/12 13:59:28;;;;;;;;;9.75;8.25;;;;;;;;5183024;27;11547;-81
2021/12/12 14:01:58;;;;;;;;;7.00;6.25;;;;;;;;5183018;27;11391;-79
2021/12/12 14:04:30;;;;;;;;;5.00;5.00;;;;;;;;5181617;27;10390;-79
2021/12/12 14:06:56;;;;;;;;;6.50;6.50;;;;;;;;5164303;27;13888;-82
2021/12/12 14:09:24;;;;;;;;;5.50;5.00;;;;;;;;5164102;27;11736;-80
2021/12/12 14:11:51;;;;;;;;;6.50;6.00;;;;;;;;5182296;27;11433;-80
2021/12/12 14:14:17;;;;;;;;;3.00;3.00;;;;;;;;5183492;27;11608;-82
2021/12/12 14:16:47;;;;;;;;;6.25;6.25;;;;;;;;5183023;27;11375;-81
2021/12/12 14:19:17;;;;;;;;;9.75;6.50;;;;;;;;5183055;27;11402;-81
2021/12/12 14:21:44;;;;;;;;;12.00;6.50;;;;;;;;5163892;27;11537;-81
2021/12/12 14:24:10;;;;;;;;;5.25;5.25;;;;;;;;5182283;27;16851;-81
2021/12/12 14:26:37;;;;;;;;;7.00;7.00;;;;;;;;5182480;27;21532;-81
2021/12/12 14:29:06;;;;;;;;;8.00;8.00;;;;;;;;5182569;27;11412;-92
2021/12/12 14:31:33;;;;;;;;;2.50;1.75;;;;;;;;5182760;27;11398;-82
2021/12/12 14:34:01;;;;;;;;;7.00;4.50;;;;;;;;5182586;27;11490;-82
2021/12/12 14:36:27;;;;;;;;;6.00;6.00;;;;;;;;5182801;27;11734;-79
2021/12/12 14:39:00;;;;;;;;;8.50;7.50;;;;;;;;5181634;27;11581;-87
2021/12/12 14:41:32;;;;;;;;;8.00;6.25;;;;;;;;5180076;27;11534;-89
2021/12/12 14:43:58;;;;;;;;;7.75;6.00;;;;;;;;5181181;27;12237;-88
2021/12/12 14:46:33;;;;;;;;;10.75;7.50;;;;;;;;5180747;27;12161;-85
2021/12/12 14:49:02;;;;;;;;;9.50;9.00;;;;;;;;5182173;27;21596;-84
2021/12/12 14:51:29;;;;;;;;;9.50;9.00;;;;;;;;5184683;27;21594;-82
2021/12/12 14:54:00;;;;;;;;;7.50;7.50;;;;;;;;5185964;27;11349;-79
2021/12/12 14:56:27;;;;;;;;;9.00;9.00;;;;;;;;5185793;27;11598;-78
2021/12/12 14:58:56;;;;;;;;;13.25;8.75;;;;;;;;5184988;27;11393;-83
2021/12/12 15:01:27;;;;;;;;;9.25;9.25;;;;;;;;5183279;27;22908;-87
2021/12/12 15:03:54;;;;;;;;;7.50;6.75;;;;;;;;5184257;27;22728;-82
2021/12/12 15:06:24;;;;;;;;;11.50;7.25;;;;;;;;5183702;27;12246;-84
2021/12/12 15:08:49;;;;;;;;;12.25;11.50;;;;;;;;5184072;27;22516;-84
2021/12/12 15:11:26;;;;;;;;;8.75;8.75;;;;;;;;5183609;27;22807;-84